Patuxent River Naval Air Station,Trapnell Field Aiport Patuxent River US
ICAO: KNHK
IATA: NHK
Category: Medium
Scheduled Services: No

Elevation: 39 ft
TransAlt. 18000 ft.

Airport Communications:
APP/DEP:120.05
ATIS:27.62
CLNC DEL:135.2
GND:120.6
BASE OPS:30.255
PMSV METRO:35.62
LEESBURG RDO:117.6
TWR:123.7

KNHK Zoom In..

If you have problems with the map follow the link
https://www.worldairports.se/pages/airport.php?
ICAO=KNHK

Runways:

(A) RW 02 length 5021 ft width 75 ft
---- / hdg 18

(B) RW 06 length 11807 ft width 200 ft
---- / hdg 59

(C) RW 14 length 9742 ft width 200 ft
---- / hdg 136

(D) RW 20 length 5021 ft width 75 ft
---- / hdg 198

(E) RW 24 length 11807 ft width 200 ft
---- / hdg 239

(F) RW 32 length 9742 ft width 200 ft
---- / hdg 316

Location; KNHK
Day. 18 / Time. 23.52 Zulu
* Altimeter: 30.40
* Temperature: 09° c. 48.2°f.
* Wind from: 000° Speed 00 kn.
Dewpoint: 03° c.
Visibility: 10 Statute Miles.
Clouds: Clear (automated report).

KNHK 182352Z 00000KT 10SM CLR 09/03 A3040 RMK AO2 SLP295 T00890033 10161 20089 53008


Wind - Calm.

 
 
jpsmedia.com for Web Design worldairports.se 2018   terms of use